KCIU

Chippewa County International Airport

Sault Ste Marie, Michigan, USA
METAR KCIU 151856Z AUTO 28007KT 10SM SCT016 BKN065 OVC080 M04/M08 A2962 RMK AO2 SNE02 SLP056 T10441078 FZRANO PNO $
Observed Flight Rules
Dec-15 @ 18:56 UTC (46 minutes ago) Visual Flight Rules
Wind Visibility Clouds
280° at 7 knots 10 miles
  • Scattered at 1,600' AGL
  • Broken at 6,500' AGL
  • Overcast at 8,000' AGL
Temperatures Readings
Current -4°C / 25°F
Dewpoint -8°C / 18°F
Humidity 74%
Altimeter 29.62" Hg
Pressure 1005.6 hPa
Elevation 244
METAR KCIU 151856Z AUTO 28007KT 10SM SCT016 BKN065 OVC080 M04/M08 A2962 RMK AO2 SNE02 SLP056 T10441078 FZRANO PNO $
Observed Flight Rules
Dec-15 @ 18:56 UTC
(46 minutes ago)
VFR
Wind Visibility
280° at 7 knots 10 miles
Clouds
  • Scattered at 1,600' AGL
  • Broken at 6,500' AGL
  • Overcast at 8,000' AGL
Temperature Dewpoint
-4°C / 25°F -8°C / 18°F
Humidity Altimeter Pressure
74% 29.62" Hg 1005.6 hPa